Fairlee, Vermont
Current Conditions -  °F | °C
As of 12:53 PM on Thursday 30 Oct 2014 (Local Time) from KLEB Reporting Station
Light Rain Light Rain  
Wind Chill: 51°   Ceiling: 3600
Heat Index: 51°   Visibility: 10mi
Dew Point: 39°   Wind: 6mph
Humidity: 63%   Direction: NA
Pressure: 29.93"   Gusts: NA
Location:  43.91°N, 72.14°W
Report Text: KLEB 301653Z VRB05KT 10SM -RA FEW023 BKN036 OVC065 11/04 A2993 RMK AO2 RAB53 SLP137 P0000 T01060039
Loading
Personal Weather Stations






























Interactive Weather Map
Tropical Storm Tracking
New forecast layout! Learn more

10-Day Weather Forecast

Advertisements
Track Severe Weather on mobile